Time;durP1;ratioP1;P1;durP2;ratioP2;P2;SDS_P1;SDS_P2;PMS_P1;PMS_P2;Temp;Humidity;BMP_temperature;BMP_pressure;BME280_temperature;BME280_humidity;BME280_pressure;Samples;Min_cycle;Max_cycle;Signal;HPM_P1;HPM_P2
2023/01/29 00:00:38;;;;;;;34.28;18.05;;;0.50;69.10;;;;;;5089043;28;20020;-13
2023/01/29 00:03:04;;;;;;;37.40;19.05;;;0.40;68.00;;;;;;5073041;28;20350;-15
2023/01/29 00:05:30;;;;;;;45.83;20.73;;;0.50;67.70;;;;;;5073419;28;20025;-16
2023/01/29 00:07:56;;;;;;;40.08;19.90;;;0.40;67.30;;;;;;5073430;28;20102;-13
2023/01/29 00:10:24;;;;;;;44.28;20.17;;;0.40;67.30;;;;;;5071978;28;20028;-14
2023/01/29 00:12:50;;;;;;;41.40;19.77;;;0.40;67.70;;;;;;5073060;28;20044;-14
2023/01/29 00:15:17;;;;;;;38.53;19.35;;;0.40;67.50;;;;;;5073427;28;20373;-14
2023/01/29 00:17:43;;;;;;;40.15;21.42;;;0.40;67.90;;;;;;5072968;28;20028;-14
2023/01/29 00:20:10;;;;;;;43.15;19.05;;;0.30;67.60;;;;;;5073261;28;20035;-14
2023/01/29 00:22:36;;;;;;;43.00;20.58;;;0.30;68.60;;;;;;5088627;28;20032;-14
2023/01/29 00:25:02;;;;;;;38.95;18.48;;;0.30;68.40;;;;;;5073021;28;20143;-14
2023/01/29 00:27:28;;;;;;;40.33;19.63;;;0.20;68.40;;;;;;5073283;28;20377;-14
2023/01/29 00:30:11;;;;;;;39.17;18.60;;;0.20;67.90;;;;;;5088516;28;20025;-14
2023/01/29 00:32:39;;;;;;;35.90;18.40;;;0.20;68.50;;;;;;5073155;28;20033;-15
2023/01/29 00:35:06;;;;;;;37.38;18.58;;;0.20;68.80;;;;;;5072461;28;20044;-15
2023/01/29 00:37:32;;;;;;;36.97;18.92;;;0.10;68.30;;;;;;5072786;28;20101;-15
2023/01/29 00:39:58;;;;;;;39.90;18.73;;;0.00;68.50;;;;;;5073138;28;20060;-15
2023/01/29 00:45:10;;;;;;;37.95;18.02;;;0.10;69.50;;;;;;5072915;28;20442;-15
2023/01/29 00:47:36;;;;;;;41.20;19.67;;;0.00;69.70;;;;;;5072917;28;20028;-13
2023/01/29 00:50:08;;;;;;;37.78;18.27;;;0.10;69.70;;;;;;5073049;28;20024;-15
2023/01/29 00:52:35;;;;;;;42.05;18.23;;;0.00;69.50;;;;;;5072710;28;20205;-14
2023/01/29 00:55:03;;;;;;;38.25;18.92;;;0.00;69.00;;;;;;5072364;28;20036;-14
2023/01/29 00:57:31;;;;;;;40.38;19.58;;;0.10;69.50;;;;;;5072941;28;20025;-14
2023/01/29 00:59:57;;;;;;;39.88;17.70;;;0.10;69.60;;;;;;5072794;28;20024;-13
2023/01/29 01:05:12;;;;;;;37.38;17.88;;;0.10;70.20;;;;;;5072957;28;20380;-14
2023/01/29 01:07:39;;;;;;;43.33;18.55;;;0.10;68.90;;;;;;5072640;28;20024;-14
2023/01/29 01:10:21;;;;;;;36.10;17.95;;;0.20;68.70;;;;;;5072806;28;20116;-13
2023/01/29 01:12:59;;;;;;;42.50;18.13;;;0.20;69.10;;;;;;5076555;28;20534;-13
2023/01/29 01:15:29;;;;;;;40.85;19.35;;;0.30;69.30;;;;;;5076816;28;20538;-14
2023/01/29 01:17:58;;;;;;;37.20;17.58;;;0.30;69.10;;;;;;5076789;28;20017;-14
2023/01/29 01:20:26;;;;;;;37.75;17.42;;;0.30;69.00;;;;;;5076946;28;20048;-14
2023/01/29 01:22:54;;;;;;;41.85;17.77;;;0.30;69.00;;;;;;5076158;28;20107;-13
2023/01/29 01:25:21;;;;;;;33.38;15.73;;;0.30;69.00;;;;;;5076687;28;20032;-14
2023/01/29 01:27:50;;;;;;;36.10;17.67;;;0.40;69.60;;;;;;5076413;28;20028;-13
2023/01/29 01:30:16;;;;;;;37.72;17.80;;;0.40;69.80;;;;;;5076272;28;20472;-14
2023/01/29 01:32:42;;;;;;;35.17;16.83;;;0.40;69.50;;;;;;5076333;28;20111;-14
2023/01/29 01:35:10;;;;;;;36.90;16.85;;;0.50;69.40;;;;;;5075868;28;20458;-14
2023/01/29 01:37:37;;;;;;;32.95;15.57;;;0.50;69.40;;;;;;5076422;28;20491;-14
2023/01/29 01:40:11;;;;;;;33.15;16.58;;;0.50;69.10;;;;;;5076321;28;20106;-13
2023/01/29 01:42:40;;;;;;;33.35;16.95;;;0.50;68.70;;;;;;5075980;28;20028;-14
2023/01/29 01:45:09;;;;;;;33.40;17.65;;;0.50;69.10;;;;;;5075722;28;20149;-14
2023/01/29 01:48:05;;;;;;;31.35;16.83;;;0.50;69.30;;;;;;5076367;28;20028;-14
2023/01/29 01:50:42;;;;;;;35.03;17.17;;;0.50;69.00;;;;;;5053629;28;20025;-13
2023/01/29 01:53:12;;;;;;;30.17;15.40;;;0.40;69.10;;;;;;5053395;28;20032;-14
2023/01/29 01:55:43;;;;;;;27.92;13.73;;;0.40;69.30;;;;;;5037102;28;20508;-14
2023/01/29 01:58:14;;;;;;;35.35;15.55;;;0.50;69.60;;;;;;5037056;28;20471;-14
2023/01/29 02:00:41;;;;;;;29.88;13.90;;;0.50;69.70;;;;;;5053445;28;20033;-13
2023/01/29 02:11:36;;;;;;;33.33;15.93;;;0.60;69.60;;;;;;5053554;28;20033;-14
2023/01/29 02:14:02;;;;;;;28.27;13.60;;;0.60;70.10;;;;;;5053413;28;20090;-14
2023/01/29 02:16:29;;;;;;;38.00;17.23;;;0.70;70.10;;;;;;5053160;28;20029;-13
2023/01/29 02:18:55;;;;;;;35.80;17.45;;;0.70;70.30;;;;;;5052931;28;20029;-15
2023/01/29 02:21:48;;;;;;;30.65;14.98;;;0.70;69.90;;;;;;5036117;28;20436;-14
2023/01/29 02:24:26;;;;;;;35.15;16.67;;;0.70;69.10;;;;;;5052528;28;20063;-14
2023/01/29 02:27:14;;;;;;;34.70;17.48;;;0.70;69.10;;;;;;5046327;28;20472;-12
2023/01/29 02:30:10;;;;;;;35.25;16.42;;;0.70;68.90;;;;;;5075347;28;20389;-14
2023/01/29 02:33:06;;;;;;;36.80;16.77;;;0.70;69.10;;;;;;5075661;28;20468;-14
2023/01/29 02:35:45;;;;;;;33.35;16.65;;;0.70;69.20;;;;;;5074781;28;20056;-14
2023/01/29 02:38:43;;;;;;;32.00;16.17;;;0.70;68.90;;;;;;5074987;28;20573;-13
2023/01/29 02:41:25;;;;;;;33.70;16.90;;;0.70;68.90;;;;;;5074663;28;20043;-13
2023/01/29 02:44:09;;;;;;;34.55;16.92;;;0.80;69.00;;;;;;5075370;28;20032;-13
2023/01/29 02:46:57;;;;;;;33.10;17.02;;;0.80;69.10;;;;;;5074689;28;20080;-14
2023/01/29 02:49:26;;;;;;;34.88;15.98;;;0.80;69.30;;;;;;5074741;28;20459;-13
2023/01/29 02:51:57;;;;;;;33.03;16.20;;;0.90;69.40;;;;;;5074839;28;20059;-14
2023/01/29 02:54:49;;;;;;;29.67;14.48;;;0.90;69.30;;;;;;5075150;28;20036;-13
2023/01/29 02:57:27;;;;;;;31.52;15.55;;;0.90;69.50;;;;;;5074696;28;20024;-14
2023/01/29 03:00:02;;;;;;;32.97;15.57;;;0.90;69.60;;;;;;5074647;28;20415;-11
2023/01/29 03:02:36;;;;;;;31.75;14.25;;;0.90;69.30;;;;;;5074533;28;20068;-12
2023/01/29 03:05:06;;;;;;;;;;;0.90;69.60;;;;;;5074557;28;20048;-11
2023/01/29 03:07:44;;;;;;;31.30;14.98;;;1.00;70.80;;;;;;5074446;28;19911;-13
2023/01/29 03:10:16;;;;;;;30.55;14.88;;;1.00;70.50;;;;;;5074362;28;20488;-12
2023/01/29 03:12:45;;;;;;;28.83;13.77;;;1.10;70.20;;;;;;5074199;28;20427;-13
2023/01/29 03:15:18;;;;;;;31.23;16.30;;;1.10;70.90;;;;;;5074199;28;20062;-13
2023/01/29 03:18:26;;;;;;;34.25;15.27;;;1.20;70.30;;;;;;5074848;28;20028;-13
2023/01/29 03:20:59;;;;;;;34.08;15.52;;;1.20;69.60;;;;;;5051873;28;20065;-13
2023/01/29 03:32:07;;;;;;;32.85;16.88;;;1.30;70.10;;;;;;5052156;28;20040;-12
2023/01/29 03:34:42;;;;;;;34.93;17.30;;;1.30;70.10;;;;;;5051438;28;20032;-13
2023/01/29 03:37:32;;;;;;;32.95;16.00;;;1.30;69.80;;;;;;5051721;28;20455;-13
2023/01/29 03:39:58;;;;;;;33.95;16.60;;;1.20;69.90;;;;;;5051764;28;20033;-13
2023/01/29 03:42:42;;;;;;;32.33;15.57;;;1.20;70.00;;;;;;5051525;28;20123;-11
2023/01/29 03:45:08;;;;;;;;;;;1.20;70.10;;;;;;5051892;28;20033;-12
2023/01/29 03:47:51;;;;;;;34.03;16.40;;;1.20;70.20;;;;;;5051367;28;19904;-13
2023/01/29 03:50:53;;;;;;;32.13;16.02;;;1.20;70.00;;;;;;5051396;28;20624;-12
2023/01/29 03:53:28;;;;;;;30.15;15.85;;;1.20;70.20;;;;;;5051488;28;20036;-13
2023/01/29 03:56:06;;;;;;;30.52;15.52;;;1.20;70.30;;;;;;5058313;28;20035;-13
2023/01/29 03:58:34;;;;;;;33.42;17.27;;;1.10;70.40;;;;;;5073617;28;20031;-14
2023/01/29 04:01:06;;;;;;;35.70;17.48;;;1.20;70.50;;;;;;5073443;28;20035;-12
2023/01/29 04:03:40;;;;;;;30.13;15.50;;;1.10;70.70;;;;;;5073404;28;20123;-13
2023/01/29 04:06:15;;;;;;;32.90;16.95;;;1.20;70.50;;;;;;5073567;28;20025;-12
2023/01/29 04:09:10;;;;;;;32.05;14.55;;;1.20;70.60;;;;;;5073514;28;20036;-12
2023/01/29 04:11:48;;;;;;;31.77;15.48;;;1.20;70.40;;;;;;5073356;28;20037;-13
2023/01/29 04:14:16;;;;;;;27.10;14.18;;;1.20;70.40;;;;;;5073188;28;20017;-13
2023/01/29 04:16:47;;;;;;;31.98;14.15;;;1.30;70.80;;;;;;5071802;28;20032;-12
2023/01/29 04:19:13;;;;;;;33.33;15.45;;;1.30;70.70;;;;;;5073010;28;20031;-13
2023/01/29 04:21:40;;;;;;;29.88;14.18;;;1.40;70.60;;;;;;5072970;28;20025;-13
2023/01/29 04:24:07;;;;;;;29.38;14.43;;;1.40;70.70;;;;;;5073279;28;20135;-14
2023/01/29 04:26:45;;;;;;;31.08;14.80;;;1.40;70.20;;;;;;5072957;28;20066;-14
2023/01/29 04:29:20;;;;;;;32.75;15.32;;;1.50;70.00;;;;;;5073064;28;20040;-12
2023/01/29 04:32:03;;;;;;;33.92;15.60;;;1.50;70.10;;;;;;5073191;28;20039;-13
2023/01/29 04:34:45;;;;;;;30.60;14.68;;;1.50;70.00;;;;;;5073382;28;20029;-13
2023/01/29 04:37:43;;;;;;;34.08;15.55;;;1.50;70.00;;;;;;5072828;28;20033;-14
2023/01/29 04:40:36;;;;;;;30.67;14.77;;;1.50;70.10;;;;;;5071331;28;20040;-13
2023/01/29 04:43:12;;;;;;;22.52;11.77;;;1.60;70.10;;;;;;5072593;28;20058;-14
2023/01/29 04:45:52;;;;;;;28.60;13.95;;;1.60;70.10;;;;;;5087733;28;20028;-13
2023/01/29 04:48:26;;;;;;;35.15;14.77;;;1.60;71.20;;;;;;5072652;28;20017;-13
2023/01/29 04:51:02;;;;;;;25.67;12.35;;;1.60;71.30;;;;;;5072454;28;20091;-14
2023/01/29 04:53:33;;;;;;;29.92;14.18;;;1.60;71.10;;;;;;5072539;28;20021;-14
2023/01/29 04:56:17;;;;;;;37.85;16.55;;;1.60;70.50;;;;;;5072810;28;20420;-14
2023/01/29 04:58:50;;;;;;;29.58;14.73;;;1.70;70.80;;;;;;5072603;28;20127;-14
2023/01/29 05:01:18;;;;;;;27.60;13.13;;;1.70;70.50;;;;;;5071296;28;20033;-14
2023/01/29 05:03:49;;;;;;;29.40;14.85;;;1.60;72.00;;;;;;5072681;28;20033;-13
2023/01/29 05:06:17;;;;;;;32.47;15.65;;;1.60;70.80;;;;;;5072557;28;20081;-13
2023/01/29 05:08:44;;;;;;;33.00;14.38;;;1.60;70.90;;;;;;5072465;28;20484;-14
2023/01/29 05:11:10;;;;;;;30.90;14.95;;;1.60;70.60;;;;;;5072767;28;20024;-13
2023/01/29 05:13:39;;;;;;;33.83;14.65;;;1.60;70.70;;;;;;5072428;28;20499;-14
2023/01/29 05:16:24;;;;;;;34.85;15.57;;;1.60;71.10;;;;;;5072394;28;20082;-14
2023/01/29 05:18:50;;;;;;;31.88;14.93;;;1.60;70.50;;;;;;5072156;28;20446;-13
2023/01/29 05:21:17;;;;;;;39.38;16.83;;;1.60;71.00;;;;;;5072412;28;20024;-13
2023/01/29 05:23:52;;;;;;;30.35;14.75;;;1.60;70.70;;;;;;5072278;28;20071;-15
2023/01/29 05:29:05;;;;;;;30.92;13.85;;;1.60;70.60;;;;;;5072376;28;20146;-13
2023/01/29 05:31:34;;;;;;;29.13;14.63;;;1.60;70.60;;;;;;5072239;28;20492;-12
2023/01/29 05:34:00;;;;;;;24.88;12.40;;;1.60;70.70;;;;;;5072401;28;20115;-14
2023/01/29 05:36:26;;;;;;;30.95;13.80;;;1.60;70.70;;;;;;5072122;28;20166;-13
2023/01/29 05:38:52;;;;;;;31.95;15.70;;;1.60;70.80;;;;;;5087576;28;20036;-14
2023/01/29 05:41:18;;;;;;;32.65;15.35;;;1.60;70.70;;;;;;5072490;28;20047;-14
2023/01/29 05:43:44;;;;;;;32.65;14.43;;;1.60;71.00;;;;;;5072266;28;20101;-14
2023/01/29 05:46:10;;;;;;;30.38;15.23;;;1.70;70.70;;;;;;5072098;28;20430;-14
2023/01/29 05:48:36;;;;;;;29.90;13.75;;;1.70;70.50;;;;;;5072008;28;20104;-14
2023/01/29 05:51:04;;;;;;;35.03;15.45;;;1.70;70.60;;;;;;5072091;28;20032;-14
2023/01/29 05:53:31;;;;;;;27.02;13.27;;;1.70;70.70;;;;;;5072010;28;20035;-14
2023/01/29 05:56:01;;;;;;;30.45;14.20;;;1.70;70.90;;;;;;5071889;28;20512;-14
2023/01/29 05:58:27;;;;;;;32.35;14.50;;;1.70;70.80;;;;;;5075808;28;20029;-13
2023/01/29 06:00:53;;;;;;;30.42;14.57;;;1.70;70.80;;;;;;5075726;28;20107;-14
2023/01/29 06:03:18;;;;;;;30.73;14.15;;;1.70;70.70;;;;;;5075751;28;20160;-13
2023/01/29 06:05:45;;;;;;;34.88;14.85;;;1.80;70.80;;;;;;5076084;28;20462;-14
2023/01/29 06:08:11;;;;;;;32.95;14.93;;;1.70;71.00;;;;;;5075676;28;20039;-14
2023/01/29 06:10:37;;;;;;;27.23;13.02;;;1.70;71.10;;;;;;5075335;28;20343;-13
2023/01/29 06:13:03;;;;;;;27.10;11.93;;;1.70;71.40;;;;;;5075463;28;20111;-14
2023/01/29 06:15:29;;;;;;;28.27;13.20;;;1.80;71.30;;;;;;5075808;28;20046;-13
2023/01/29 06:17:56;;;;;;;29.90;14.02;;;1.80;71.50;;;;;;5075615;28;20494;-14
2023/01/29 06:20:22;;;;;;;31.40;14.50;;;1.80;71.30;;;;;;5075324;28;20111;-13
2023/01/29 06:22:48;;;;;;;34.17;14.80;;;1.80;71.10;;;;;;5075166;28;20071;-15
2023/01/29 06:25:14;;;;;;;29.92;15.10;;;1.80;71.10;;;;;;5075388;28;20060;-14
2023/01/29 06:27:40;;;;;;;31.40;14.00;;;1.80;71.00;;;;;;5075504;28;20071;-14
2023/01/29 06:30:07;;;;;;;29.38;13.77;;;1.80;71.00;;;;;;5075378;28;20036;-14
2023/01/29 06:32:33;;;;;;;32.60;15.40;;;1.80;71.20;;;;;;5075362;28;20095;-14
2023/01/29 06:34:59;;;;;;;30.05;13.82;;;1.80;71.20;;;;;;5074522;28;20461;-14
2023/01/29 06:37:25;;;;;;;27.45;13.85;;;1.80;71.40;;;;;;5075039;28;20064;-13
2023/01/29 06:39:51;;;;;;;31.20;15.70;;;1.80;71.40;;;;;;5075030;28;20056;-14
2023/01/29 06:42:17;;;;;;;34.42;16.52;;;1.80;71.40;;;;;;5075555;28;20111;-14
2023/01/29 06:44:43;;;;;;;37.20;17.95;;;1.80;71.30;;;;;;5075148;28;20032;-16
2023/01/29 06:47:09;;;;;;;32.70;15.77;;;1.80;71.30;;;;;;5074710;28;20476;-13
2023/01/29 06:49:35;;;;;;;29.17;15.40;;;1.90;71.50;;;;;;5074744;28;20032;-14
2023/01/29 06:52:01;;;;;;;32.95;13.95;;;1.90;71.60;;;;;;5074771;28;20025;-13
2023/01/29 06:54:28;;;;;;;34.75;15.77;;;1.90;71.80;;;;;;5074886;28;20027;-13
2023/01/29 06:56:55;;;;;;;29.95;14.60;;;1.90;71.60;;;;;;5074375;28;20058;-13
2023/01/29 06:59:21;;;;;;;33.13;16.05;;;1.90;71.50;;;;;;5074729;28;20103;-12
2023/01/29 07:01:47;;;;;;;27.58;14.50;;;1.90;71.40;;;;;;5074328;28;20171;-13
2023/01/29 07:04:12;;;;;;;29.75;16.10;;;1.90;71.80;;;;;;5074690;28;20036;-13
2023/01/29 07:06:38;;;;;;;30.80;14.18;;;1.90;71.70;;;;;;5074643;28;20579;-13
2023/01/29 07:09:04;;;;;;;26.13;14.02;;;1.90;71.70;;;;;;5073349;28;20017;-13
2023/01/29 07:11:30;;;;;;;26.75;13.75;;;1.90;71.70;;;;;;5074581;28;20031;-12
2023/01/29 07:13:56;;;;;;;21.67;10.90;;;1.90;72.00;;;;;;5074563;28;20111;-12
2023/01/29 07:16:23;;;;;;;29.17;13.50;;;1.90;72.10;;;;;;5074567;28;20078;-13
2023/01/29 07:18:49;;;;;;;34.03;16.50;;;1.90;72.40;;;;;;5074099;28;20033;-12
2023/01/29 07:21:15;;;;;;;20.42;11.23;;;2.00;72.00;;;;;;5074064;28;20035;-14
2023/01/29 07:23:41;;;;;;;29.65;14.00;;;2.00;72.00;;;;;;5074304;28;20063;-13
2023/01/29 07:26:08;;;;;;;28.65;14.50;;;2.10;71.80;;;;;;5073932;28;20037;-13
2023/01/29 07:28:38;;;;;;;27.13;13.80;;;2.10;72.50;;;;;;5074140;28;20442;-13
2023/01/29 07:31:05;;;;;;;22.23;10.85;;;2.10;72.20;;;;;;5073867;28;20040;-13
2023/01/29 07:33:32;;;;;;;27.48;13.95;;;2.10;72.30;;;;;;5073711;28;20029;-14
2023/01/29 07:35:58;;;;;;;30.38;15.63;;;2.10;72.40;;;;;;5073584;28;20523;-14
2023/01/29 07:38:23;;;;;;;28.33;15.73;;;2.10;72.20;;;;;;5073967;28;20024;-14
2023/01/29 07:40:51;;;;;;;29.40;15.30;;;2.20;72.50;;;;;;5073486;28;20035;-14
2023/01/29 07:43:17;;;;;;;25.23;14.18;;;2.20;72.50;;;;;;5074447;28;20477;-12
2023/01/29 07:45:43;;;;;;;35.50;16.65;;;2.30;72.70;;;;;;5073684;28;20032;-14
2023/01/29 07:48:12;;;;;;;40.35;20.05;;;2.30;72.60;;;;;;5073852;28;20021;-13
2023/01/29 07:50:39;;;;;;;42.03;22.80;;;2.40;72.50;;;;;;5073560;28;20357;-12
2023/01/29 07:53:04;;;;;;;37.92;19.95;;;2.40;72.00;;;;;;5073326;28;20039;-14
2023/01/29 07:55:32;;;;;;;36.65;18.52;;;2.40;71.80;;;;;;5073770;28;20025;-12
2023/01/29 07:58:00;;;;;;;37.65;17.75;;;2.40;71.70;;;;;;5073580;28;20078;-14
2023/01/29 08:00:27;;;;;;;41.15;20.77;;;2.50;71.70;;;;;;5073227;28;20068;-13
2023/01/29 08:02:52;;;;;;;39.78;19.95;;;2.60;71.50;;;;;;5073131;28;20032;-12
2023/01/29 08:05:19;;;;;;;46.60;19.83;;;2.70;71.40;;;;;;5073127;28;20025;-11
2023/01/29 08:07:45;;;;;;;42.38;20.83;;;2.80;71.40;;;;;;5073800;28;20016;-12
2023/01/29 08:10:11;;;;;;;46.58;23.23;;;2.90;71.60;;;;;;5073353;28;20112;-13
2023/01/29 08:12:37;;;;;;;53.33;25.10;;;3.00;71.00;;;;;;5071838;28;20027;-13
2023/01/29 08:15:03;;;;;;;40.95;19.40;;;3.10;70.90;;;;;;5072899;28;20032;-12
2023/01/29 08:17:28;;;;;;;37.10;18.30;;;3.20;70.50;;;;;;5072186;28;20020;-12
2023/01/29 08:19:54;;;;;;;38.67;19.67;;;3.30;70.60;;;;;;5073010;28;20028;-14
2023/01/29 08:22:20;;;;;;;41.38;19.77;;;3.30;70.30;;;;;;5073191;28;20419;-12
2023/01/29 08:24:46;;;;;;;38.78;17.25;;;3.40;69.80;;;;;;5072758;28;20024;-14
2023/01/29 08:27:12;;;;;;;31.17;15.68;;;3.50;69.80;;;;;;5072926;28;20035;-13
2023/01/29 08:29:38;;;;;;;34.33;16.17;;;3.60;69.70;;;;;;5072842;28;20425;-12
2023/01/29 08:32:03;;;;;;;33.80;16.50;;;3.70;69.60;;;;;;5072758;28;20065;-13
2023/01/29 08:34:29;;;;;;;35.08;15.88;;;3.90;69.10;;;;;;5072634;28;20039;-13
2023/01/29 08:36:55;;;;;;;31.38;14.82;;;4.00;68.50;;;;;;5072325;28;20060;-13
2023/01/29 08:39:21;;;;;;;29.95;15.15;;;4.10;68.00;;;;;;5072722;28;20039;-13
2023/01/29 08:41:46;;;;;;;33.78;15.25;;;4.30;67.70;;;;;;5072485;28;20032;-13
2023/01/29 08:44:12;;;;;;;34.25;14.32;;;4.40;67.80;;;;;;5072675;28;20107;-13
2023/01/29 08:46:39;;;;;;;28.98;13.60;;;4.60;67.30;;;;;;5072589;28;20423;-13
2023/01/29 08:49:07;;;;;;;26.85;12.35;;;4.70;67.20;;;;;;5072521;28;20307;-13
2023/01/29 08:51:33;;;;;;;26.50;13.38;;;4.90;66.80;;;;;;5072816;28;20109;-13
2023/01/29 08:53:59;;;;;;;28.50;12.52;;;5.10;65.90;;;;;;5072408;28;20090;-13
2023/01/29 08:56:24;;;;;;;26.58;13.05;;;5.20;66.00;;;;;;5072660;28;20024;-12
2023/01/29 08:58:50;;;;;;;24.65;11.88;;;5.50;64.70;;;;;;5072414;28;20024;-13
2023/01/29 09:01:16;;;;;;;26.92;12.63;;;5.60;64.70;;;;;;5088176;28;20382;-13
2023/01/29 09:03:43;;;;;;;29.65;14.27;;;5.80;64.30;;;;;;5072714;28;20496;-13
2023/01/29 09:06:11;;;;;;;26.13;13.07;;;6.00;63.80;;;;;;5072337;28;20036;-14
2023/01/29 09:08:38;;;;;;;25.60;12.70;;;6.30;62.90;;;;;;5072595;28;20054;-13
2023/01/29 09:11:04;;;;;;;28.25;14.30;;;6.40;62.20;;;;;;5072219;28;20424;-13
2023/01/29 09:13:30;;;;;;;28.60;12.88;;;6.70;61.20;;;;;;5072823;28;20028;-13
2023/01/29 09:16:01;;;;;;;24.52;11.20;;;6.90;61.60;;;;;;5072243;28;20412;-13
2023/01/29 09:18:28;;;;;;;26.60;12.57;;;7.00;61.70;;;;;;5071003;28;20025;-13
2023/01/29 09:20:54;;;;;;;22.17;12.10;;;7.20;58.80;;;;;;5071939;28;20111;-13
2023/01/29 09:23:20;;;;;;;28.95;13.35;;;7.30;59.70;;;;;;5072137;28;20060;-14
2023/01/29 09:25:46;;;;;;;26.77;13.63;;;7.40;56.50;;;;;;5072177;28;20451;-13
2023/01/29 09:28:12;;;;;;;27.33;13.30;;;7.60;56.30;;;;;;5072102;28;20032;-14
2023/01/29 09:30:38;;;;;;;30.83;14.73;;;7.70;57.70;;;;;;5072795;28;20021;-13
2023/01/29 09:33:07;;;;;;;28.35;14.05;;;7.80;56.20;;;;;;5075165;28;20027;-14
2023/01/29 09:35:33;;;;;;;28.55;13.63;;;7.90;56.50;;;;;;5075684;28;20048;-13
2023/01/29 09:38:00;;;;;;;27.23;13.15;;;8.00;56.60;;;;;;5076260;28;20024;-13
2023/01/29 09:40:39;;;;;;;22.65;11.25;;;8.00;57.00;;;;;;5076299;28;20025;-13
2023/01/29 09:43:37;;;;;;;23.15;11.18;;;8.20;57.20;;;;;;5075945;28;20115;-13
2023/01/29 09:46:19;;;;;;;26.88;12.52;;;8.40;56.50;;;;;;5068132;28;20036;-12
2023/01/29 09:48:45;;;;;;;22.88;11.50;;;8.70;55.50;;;;;;5076001;28;20039;-14
2023/01/29 09:51:27;;;;;;;25.17;12.73;;;8.90;55.60;;;;;;5076097;28;20119;-12
2023/01/29 09:54:09;;;;;;;22.35;11.52;;;9.10;50.00;;;;;;5074436;28;20032;-12
2023/01/29 09:56:35;;;;;;;23.27;11.68;;;9.10;52.70;;;;;;5075929;28;20100;-12
2023/01/29 09:59:01;;;;;;;25.48;12.82;;;9.10;51.90;;;;;;5075354;28;20108;-14
2023/01/29 10:01:48;;;;;;;24.27;12.20;;;9.30;53.20;;;;;;5075820;28;20078;-13
2023/01/29 10:04:20;;;;;;;24.17;12.32;;;9.40;51.80;;;;;;5075808;28;20060;-13
2023/01/29 10:07:21;;;;;;;24.40;12.77;;;9.50;53.10;;;;;;5075451;28;20139;-13
2023/01/29 10:09:50;;;;;;;23.80;11.73;;;9.60;50.90;;;;;;5075909;28;20086;-14
2023/01/29 10:12:27;;;;;;;23.50;12.50;;;9.70;51.80;;;;;;5075627;28;20036;-12
2023/01/29 10:15:16;;;;;;;22.48;11.32;;;10.00;51.90;;;;;;5075210;28;20016;-14
2023/01/29 10:17:50;;;;;;;21.05;10.45;;;10.30;50.80;;;;;;5075340;28;20031;-15
2023/01/29 10:20:47;;;;;;;21.60;11.10;;;10.50;50.30;;;;;;5075347;28;20036;-14
2023/01/29 10:23:19;;;;;;;22.48;11.27;;;10.80;50.60;;;;;;5075148;28;20344;-15
2023/01/29 10:25:47;;;;;;;20.95;10.93;;;11.10;49.20;;;;;;5075108;28;20033;-14
2023/01/29 10:28:42;;;;;;;23.33;11.73;;;11.40;48.60;;;;;;5075397;28;20048;-14
2023/01/29 10:31:33;;;;;;;21.77;11.80;;;11.80;47.90;;;;;;5072833;28;20523;-14
2023/01/29 10:34:10;;;;;;;26.90;13.68;;;12.00;47.80;;;;;;5074902;28;20024;-14
2023/01/29 10:36:44;;;;;;;22.08;11.15;;;12.20;48.30;;;;;;5074668;28;20132;-14
2023/01/29 10:39:19;;;;;;;21.25;11.20;;;12.40;47.50;;;;;;5075120;28;20103;-13
2023/01/29 10:42:19;;;;;;;22.52;11.60;;;12.50;46.80;;;;;;5074816;28;20036;-14
2023/01/29 10:44:45;;;;;;;19.45;10.52;;;12.60;46.10;;;;;;5074038;28;20070;-14
2023/01/29 10:47:52;;;;;;;21.60;11.80;;;12.80;45.70;;;;;;5074672;28;20094;-13
2023/01/29 10:50:49;;;;;;;20.48;10.80;;;13.00;43.30;;;;;;5074974;28;20029;-10
2023/01/29 10:53:38;;;;;;;19.58;10.57;;;13.00;44.00;;;;;;5074638;28;20032;-11
2023/01/29 10:56:25;;;;;;;22.38;11.13;;;13.00;44.80;;;;;;5074686;28;20020;-15
2023/01/29 10:58:55;;;;;;;21.75;11.73;;;13.30;41.60;;;;;;5074674;28;20025;-11
2023/01/29 11:01:22;;;;;;;20.35;11.05;;;13.40;40.90;;;;;;5074684;28;20097;-12
2023/01/29 11:04:03;;;;;;;22.67;12.20;;;13.50;41.30;;;;;;5074596;28;20446;-13
2023/01/29 11:06:31;;;;;;;19.95;11.00;;;13.40;41.30;;;;;;5074440;28;20516;-12
2023/01/29 11:09:15;;;;;;;17.95;9.75;;;13.20;42.50;;;;;;5074121;28;20044;-13
2023/01/29 11:12:10;;;;;;;19.48;11.45;;;13.20;43.00;;;;;;5074319;28;20035;-14
2023/01/29 11:14:41;;;;;;;23.63;12.40;;;13.20;41.30;;;;;;5073780;28;20436;-12
2023/01/29 11:17:17;;;;;;;22.63;12.00;;;13.10;41.50;;;;;;5073932;28;20074;-14
2023/01/29 11:19:46;;;;;;;18.73;10.70;;;13.10;41.10;;;;;;5072774;28;20365;-14
2023/01/29 11:22:19;;;;;;;19.67;10.88;;;13.00;42.70;;;;;;5074134;28;20039;-13
2023/01/29 11:24:46;;;;;;;19.52;10.20;;;13.20;43.10;;;;;;5074379;28;20031;-13
2023/01/29 11:27:34;;;;;;;22.10;11.57;;;13.50;42.80;;;;;;5072801;28;20535;-12
2023/01/29 11:33:25;;;;;;;20.23;10.77;;;13.80;42.50;;;;;;5073953;28;20031;-13
2023/01/29 11:35:56;;;;;;;21.83;11.75;;;13.90;42.90;;;;;;5073435;28;20558;-13
2023/01/29 11:38:27;;;;;;;21.70;11.95;;;14.20;41.00;;;;;;5073999;28;20475;-13
2023/01/29 11:41:06;;;;;;;22.48;12.27;;;14.40;40.10;;;;;;5073651;28;20039;-13
2023/01/29 11:43:32;;;;;;;19.42;11.30;;;14.80;37.60;;;;;;5073644;28;20051;-13
2023/01/29 11:46:04;;;;;;;20.02;11.00;;;14.90;38.50;;;;;;5073606;28;20067;-12
2023/01/29 11:48:44;;;;;;;18.58;10.88;;;15.20;38.20;;;;;;5073512;28;20127;-13
2023/01/29 11:51:20;;;;;;;20.40;11.10;;;15.20;38.00;;;;;;5073339;28;20427;-14
2023/01/29 11:53:53;;;;;;;21.70;10.80;;;15.00;38.80;;;;;;5073457;28;20025;-13
2023/01/29 11:56:40;;;;;;;19.17;11.80;;;14.90;39.10;;;;;;5073510;28;20025;-13
2023/01/29 11:59:36;;;;;;;23.42;11.80;;;14.90;38.50;;;;;;5073174;28;20028;-12
2023/01/29 12:02:19;;;;;;;20.90;10.25;;;15.20;38.40;;;;;;5073489;28;20028;-12
2023/01/29 12:04:45;;;;;;;21.10;11.35;;;15.40;35.60;;;;;;5073186;28;20510;-12
2023/01/29 12:07:16;;;;;;;20.20;12.05;;;15.50;35.30;;;;;;5073363;28;20025;-12
2023/01/29 12:09:50;;;;;;;20.33;11.40;;;15.50;36.30;;;;;;5073387;28;20377;-12
2023/01/29 12:12:28;;;;;;;20.30;11.15;;;15.20;37.10;;;;;;5073102;28;20443;-11
2023/01/29 12:15:03;;;;;;;20.92;10.90;;;14.90;38.00;;;;;;5072849;28;20381;-12
2023/01/29 12:17:31;;;;;;;21.77;11.82;;;14.90;37.30;;;;;;5073253;28;20028;-12
2023/01/29 12:20:03;;;;;;;20.75;11.35;;;14.90;36.90;;;;;;5073195;28;20086;-12
2023/01/29 12:22:46;;;;;;;20.20;11.30;;;15.10;35.60;;;;;;5072978;28;20502;-12
2023/01/29 12:25:33;;;;;;;20.95;11.60;;;15.10;36.00;;;;;;5073397;28;20464;-12
2023/01/29 12:28:01;;;;;;;19.02;10.88;;;14.90;36.90;;;;;;5073069;28;20048;-12
2023/01/29 12:30:32;;;;;;;22.55;12.25;;;15.00;37.10;;;;;;5072805;28;20099;-13
2023/01/29 12:33:02;;;;;;;21.08;11.27;;;15.10;37.30;;;;;;5088214;28;20060;-12
2023/01/29 12:35:44;;;;;;;21.52;11.57;;;15.30;36.30;;;;;;5072719;28;20048;-12
2023/01/29 12:38:19;;;;;;;20.25;11.07;;;15.40;36.30;;;;;;5072711;28;20116;-12
2023/01/29 12:40:50;;;;;;;19.60;10.98;;;15.30;36.90;;;;;;5072482;28;20047;-13
2023/01/29 12:43:28;;;;;;;21.65;11.95;;;15.40;36.70;;;;;;5072599;28;20020;-13
2023/01/29 12:45:56;;;;;;;21.23;11.07;;;15.40;37.20;;;;;;5072886;28;20036;-13
2023/01/29 12:48:33;;;;;;;19.98;11.75;;;15.40;37.30;;;;;;5072486;28;20124;-12
2023/01/29 12:51:28;;;;;;;19.88;11.38;;;15.20;37.30;;;;;;5072410;28;20503;-14
2023/01/29 12:54:08;;;;;;;21.45;12.13;;;15.40;36.70;;;;;;5071795;28;20073;-12
2023/01/29 12:56:37;;;;;;;21.77;11.90;;;15.30;36.80;;;;;;5072828;28;20050;-13
2023/01/29 12:59:26;;;;;;;18.58;10.23;;;15.10;37.50;;;;;;5072419;28;20339;-14
2023/01/29 13:01:57;;;;;;;20.13;11.80;;;14.90;38.00;;;;;;5072770;28;20033;-13
2023/01/29 13:05:04;;;;;;;21.33;12.23;;;14.80;38.40;;;;;;5072632;28;20042;-13
2023/01/29 13:07:35;;;;;;;21.65;12.07;;;14.60;38.20;;;;;;5065757;28;20170;-12
2023/01/29 13:10:13;;;;;;;21.02;11.75;;;14.40;38.90;;;;;;5072621;28;20036;-13
2023/01/29 13:12:46;;;;;;;20.52;11.38;;;14.30;38.60;;;;;;5072387;28;20104;-13
2023/01/29 13:15:27;;;;;;;20.50;11.40;;;14.10;39.70;;;;;;5073195;28;20053;-12
2023/01/29 13:18:06;;;;;;;22.35;11.13;;;14.00;39.80;;;;;;5072365;28;20078;-14
2023/01/29 13:20:34;;;;;;;19.58;10.85;;;14.50;37.80;;;;;;5072309;28;20031;-14
2023/01/29 13:23:14;;;;;;;21.63;11.65;;;14.60;37.50;;;;;;5072060;28;20516;-12
2023/01/29 13:25:40;;;;;;;20.17;10.73;;;14.70;37.50;;;;;;5072331;28;20050;-13
2023/01/29 13:28:18;;;;;;;22.33;11.23;;;14.70;37.00;;;;;;5072854;28;20170;-13
2023/01/29 13:30:44;;;;;;;19.00;10.50;;;14.60;37.60;;;;;;5070968;28;20086;-13